Terminal Aerodrome Forecast
Issued by NWS Grand Forks, ND

Home | Current Version | Previous Version | Text Only | Print | Product List | Glossary On
Versions: 1 2 3 4 5 6 7 8 9 10 11 12
216
FTUS43 KFGF 220520
TAFGFK
TAF
KGFK 220520Z 2206/2306 27010KT P6SM BKN045
     FM220800 26010KT P6SM SCT110
     FM221500 23010KT P6SM SKC
     FM221800 21015G23KT P6SM BKN200=

USA.gov is the U.S. government's official web portal to all federal, state and local government web resources and services.